Okolona, Arkansas
Current Conditions -  °F | °C
As of 9:56 AM on Wednesday 22 Oct 2014 (Local Time) from KADF Reporting Station
Clear Clear  
Wind Chill: 60°   Ceiling: Unl
Heat Index: 60°   Visibility: 10mi
Dew Point: 54°   Wind: 9mph
Humidity: 81%   Direction: 30°NNE
Pressure: 30.23"   Gusts: NA
Location:  34°N, 93.34°W
Report Text: KADF 221456Z AUTO 03008KT 10SM CLR 16/12 A3023 RMK AO2 51019 T01550122 SLP249
Loading
Personal Weather Stations






























Interactive Weather Map
Tropical Storm Tracking
New forecast layout! Learn more

10-Day Weather Forecast

Advertisements
Track Severe Weather on mobile